createdAt,value
2022-08-20T00:00:40.773Z,62.79
2022-08-20T00:03:16.096Z,63.04
2022-08-20T00:05:49.371Z,62.96
2022-08-20T00:08:17.574Z,62.89
2022-08-20T00:10:46.195Z,63.04
2022-08-20T00:13:19.717Z,63.12
2022-08-20T00:15:46.704Z,63.22
2022-08-20T00:18:14.534Z,63.16
2022-08-20T00:20:43.994Z,63.23
2022-08-20T00:23:11.622Z,63.20
2022-08-20T00:25:39.430Z,63.34
2022-08-20T00:28:07.007Z,63.48
2022-08-20T00:30:35.284Z,63.35
2022-08-20T00:33:08.837Z,63.42
2022-08-20T00:35:40.220Z,63.46
2022-08-20T00:38:06.734Z,63.32
2022-08-20T00:40:44.289Z,63.21
2022-08-20T00:43:39.645Z,63.44
2022-08-20T00:46:10.053Z,63.44
2022-08-20T00:48:38.984Z,63.35
2022-08-20T00:51:11.306Z,63.60
2022-08-20T00:53:39.414Z,63.45
2022-08-20T00:56:08.221Z,63.62
2022-08-20T00:58:37.603Z,63.65
2022-08-20T01:01:06.529Z,63.75
2022-08-20T01:03:34.005Z,63.68
2022-08-20T01:06:00.641Z,63.71
2022-08-20T01:08:27.531Z,63.67
2022-08-20T01:11:28.114Z,63.68
2022-08-20T01:14:24.510Z,63.67
2022-08-20T01:16:58.068Z,63.79
2022-08-20T01:19:35.938Z,63.69
2022-08-20T01:22:24.567Z,63.95
2022-08-20T01:24:58.633Z,63.82
2022-08-20T01:27:25.354Z,64.07
2022-08-20T01:29:52.057Z,64.15
2022-08-20T01:32:18.639Z,64.09
2022-08-20T01:34:45.079Z,63.97
2022-08-20T01:37:11.513Z,64.10
2022-08-20T01:39:38.012Z,64.34
2022-08-20T01:42:27.418Z,64.04
2022-08-20T01:44:53.996Z,64.33
2022-08-20T01:47:31.871Z,64.09
2022-08-20T01:50:17.772Z,64.42
2022-08-20T01:53:11.535Z,64.21
2022-08-20T01:55:38.933Z,64.57
2022-08-20T01:58:05.525Z,64.36
2022-08-20T02:00:32.585Z,64.47
2022-08-20T02:02:59.099Z,64.51
2022-08-20T02:05:30.541Z,64.44
2022-08-20T02:07:57.641Z,64.42
2022-08-20T02:10:24.932Z,64.71
2022-08-20T02:12:53.090Z,64.57
2022-08-20T02:15:34.464Z,64.63
2022-08-20T02:18:05.101Z,64.63
2022-08-20T02:20:35.922Z,64.54
2022-08-20T02:23:05.301Z,64.79
2022-08-20T02:25:35.394Z,64.87
2022-08-20T02:28:05.385Z,64.79
2022-08-20T02:30:35.902Z,64.82
2022-08-20T02:33:06.454Z,64.76
2022-08-20T02:35:33.901Z,64.83
2022-08-20T02:38:01.028Z,64.66
2022-08-20T02:40:31.100Z,64.74
2022-08-20T02:42:59.755Z,64.74
2022-08-20T02:45:27.160Z,64.73
2022-08-20T02:47:55.621Z,64.91
2022-08-20T02:50:24.063Z,65.07
2022-08-20T02:52:51.876Z,64.83
2022-08-20T02:55:27.305Z,64.87
2022-08-20T02:57:59.880Z,64.89
2022-08-20T03:00:37.906Z,64.96
2022-08-20T03:03:06.684Z,64.97
2022-08-20T03:05:34.622Z,64.77
2022-08-20T03:08:01.235Z,64.94
2022-08-20T03:10:34.496Z,64.79
2022-08-20T03:13:02.598Z,64.63
2022-08-20T03:15:30.901Z,64.90
2022-08-20T03:17:58.237Z,64.99
2022-08-20T03:20:26.059Z,64.89
2022-08-20T03:22:53.227Z,64.93
2022-08-20T03:25:19.783Z,65.02
2022-08-20T03:27:47.180Z,64.99
2022-08-20T03:30:21.999Z,65.13
2022-08-20T03:32:48.470Z,64.83
2022-08-20T03:35:16.935Z,65.07
2022-08-20T03:37:45.771Z,64.85
2022-08-20T03:40:22.559Z,65.05
2022-08-20T03:42:48.974Z,64.80
2022-08-20T03:45:19.913Z,64.84
2022-08-20T03:47:48.552Z,65.00
2022-08-20T03:50:22.945Z,64.96
2022-08-20T03:52:51.414Z,65.11
2022-08-20T03:55:18.184Z,64.97
2022-08-20T03:57:51.900Z,64.81
2022-08-20T04:00:47.603Z,64.85
2022-08-20T04:03:15.279Z,65.19
2022-08-20T04:05:42.750Z,65.16
2022-08-20T04:08:15.965Z,64.95
2022-08-20T04:10:43.059Z,64.87
2022-08-20T04:13:09.495Z,65.02
2022-08-20T04:15:37.165Z,64.97
2022-08-20T04:18:07.547Z,64.95
2022-08-20T04:20:36.376Z,65.01
2022-08-20T04:23:04.309Z,64.91
2022-08-20T04:25:36.056Z,65.17
2022-08-20T04:28:06.652Z,65.15
2022-08-20T04:30:34.226Z,65.05
2022-08-20T04:33:01.033Z,65.06
2022-08-20T04:35:28.517Z,65.19
2022-08-20T04:38:22.124Z,65.10
2022-08-20T04:40:55.941Z,65.23
2022-08-20T04:43:44.411Z,65.08
2022-08-20T04:46:10.910Z,65.30
2022-08-20T04:48:41.000Z,65.20
2022-08-20T04:51:10.282Z,65.22
2022-08-20T04:53:36.872Z,65.17
2022-08-20T04:56:03.649Z,65.35
2022-08-20T04:58:33.799Z,64.96
2022-08-20T05:01:04.012Z,65.02
2022-08-20T05:03:31.729Z,65.14
2022-08-20T05:05:59.085Z,65.02
2022-08-20T05:08:26.472Z,65.09
2022-08-20T05:10:58.137Z,65.28
2022-08-20T05:13:41.290Z,65.13
2022-08-20T05:16:08.088Z,65.00
2022-08-20T05:18:35.164Z,65.25
2022-08-20T05:21:08.502Z,65.21
2022-08-20T05:23:40.565Z,65.22
2022-08-20T05:26:09.034Z,65.25
2022-08-20T05:28:54.088Z,65.22
2022-08-20T05:31:25.153Z,65.03
2022-08-20T05:34:12.249Z,65.23
2022-08-20T05:36:41.026Z,65.14
2022-08-20T05:39:08.926Z,65.18
2022-08-20T05:41:36.245Z,64.94
2022-08-20T05:44:02.939Z,65.15
2022-08-20T05:46:31.370Z,65.19
2022-08-20T05:48:59.800Z,65.09
2022-08-20T05:51:28.538Z,64.90
2022-08-20T05:53:59.056Z,65.17
2022-08-20T05:56:27.261Z,65.12
2022-08-20T05:58:54.129Z,65.08
2022-08-20T06:01:21.128Z,65.15
2022-08-20T06:04:06.213Z,65.00
2022-08-20T06:06:44.172Z,65.14
2022-08-20T06:09:14.323Z,65.33
2022-08-20T06:11:40.896Z,65.65
2022-08-20T06:14:07.504Z,65.61
2022-08-20T06:16:34.096Z,65.56
2022-08-20T06:19:03.769Z,65.48
2022-08-20T06:21:30.285Z,65.77
2022-08-20T06:23:58.869Z,65.85
2022-08-20T06:26:29.768Z,65.95
2022-08-20T06:28:58.455Z,66.52
2022-08-20T06:31:24.944Z,66.06
2022-08-20T06:33:51.555Z,65.86
2022-08-20T06:36:18.806Z,66.58
2022-08-20T06:38:46.187Z,65.91
2022-08-20T06:41:12.917Z,65.71
2022-08-20T06:43:39.434Z,65.73
2022-08-20T06:46:06.893Z,65.49
2022-08-20T06:48:37.043Z,65.75
2022-08-20T06:51:06.407Z,65.55
2022-08-20T06:53:32.859Z,65.42
2022-08-20T06:55:59.683Z,65.44
2022-08-20T06:58:38.394Z,65.23
2022-08-20T07:01:12.199Z,65.13
2022-08-20T07:03:54.112Z,65.27
2022-08-20T07:06:22.199Z,65.19
2022-08-20T07:08:48.666Z,65.20
2022-08-20T07:11:15.370Z,65.11
2022-08-20T07:13:41.971Z,65.15
2022-08-20T07:16:08.985Z,65.06
2022-08-20T07:18:36.044Z,65.21
2022-08-20T07:21:02.510Z,65.86
2022-08-20T07:23:31.566Z,66.27
2022-08-20T07:25:58.555Z,66.39
2022-08-20T07:28:29.017Z,65.98
2022-08-20T07:31:15.812Z,65.90
2022-08-20T07:33:44.579Z,65.72
2022-08-20T07:36:12.797Z,66.09
2022-08-20T07:38:39.386Z,66.77
2022-08-20T07:41:09.907Z,66.40
2022-08-20T07:43:36.540Z,66.19
2022-08-20T07:46:09.189Z,67.21
2022-08-20T07:48:39.759Z,67.95
2022-08-20T07:51:08.101Z,67.51
2022-08-20T07:53:37.057Z,67.41
2022-08-20T07:56:10.289Z,67.11
2022-08-20T07:58:41.520Z,67.94
2022-08-20T08:01:08.335Z,68.16
2022-08-20T08:03:39.553Z,68.30
2022-08-20T08:06:28.313Z,68.15
2022-08-20T08:09:13.175Z,67.63
2022-08-20T08:11:47.485Z,68.64
2022-08-20T08:14:16.222Z,68.84
2022-08-20T08:16:45.371Z,68.75
2022-08-20T08:19:16.954Z,68.54
2022-08-20T08:21:44.372Z,68.79
2022-08-20T08:24:12.736Z,68.70
2022-08-20T08:26:40.963Z,69.35
2022-08-20T08:29:07.564Z,68.96
2022-08-20T08:31:34.928Z,68.62
2022-08-20T08:34:01.381Z,68.78
2022-08-20T08:36:27.934Z,68.94
2022-08-20T08:38:55.940Z,68.75
2022-08-20T08:41:35.455Z,68.89
2022-08-20T08:44:21.695Z,68.77
2022-08-20T08:46:49.485Z,69.01
2022-08-20T08:49:24.524Z,69.00
2022-08-20T08:52:07.184Z,68.77
2022-08-20T08:54:35.135Z,68.55
2022-08-20T08:57:02.583Z,68.92
2022-08-20T08:59:48.577Z,68.40
2022-08-20T09:02:22.250Z,68.14
2022-08-20T09:04:51.511Z,68.39
2022-08-20T09:07:18.183Z,68.46
2022-08-20T09:09:46.733Z,68.10
2022-08-20T09:12:19.297Z,67.79
2022-08-20T09:14:50.212Z,67.75
2022-08-20T09:17:19.441Z,67.67
2022-08-20T09:19:46.340Z,67.65
2022-08-20T09:22:18.700Z,67.87
2022-08-20T09:24:46.285Z,66.98
2022-08-20T09:27:12.766Z,65.87
2022-08-20T09:29:39.949Z,65.02
2022-08-20T09:32:18.860Z,64.81
2022-08-20T09:34:56.944Z,64.96
2022-08-20T09:37:25.876Z,64.86
2022-08-20T09:39:52.639Z,64.80
2022-08-20T09:42:28.393Z,64.96
2022-08-20T09:44:55.836Z,65.00
2022-08-20T09:47:22.400Z,64.69
2022-08-20T09:49:49.511Z,64.32
2022-08-20T09:52:40.681Z,64.26
2022-08-20T09:55:33.542Z,64.30
2022-08-20T09:58:08.136Z,64.15
2022-08-20T10:00:34.779Z,64.28
2022-08-20T10:03:03.183Z,64.09
2022-08-20T10:05:30.202Z,64.42
2022-08-20T10:07:56.762Z,64.59
2022-08-20T10:10:23.307Z,64.35
2022-08-20T10:12:54.634Z,64.15
2022-08-20T10:15:21.624Z,64.19
2022-08-20T10:17:48.109Z,63.82
2022-08-20T10:20:15.579Z,63.39
2022-08-20T10:22:42.062Z,63.16
2022-08-20T10:25:08.726Z,63.21
2022-08-20T10:27:35.189Z,62.87
2022-08-20T10:30:05.238Z,61.78
2022-08-20T10:32:31.748Z,61.86
2022-08-20T10:34:58.208Z,61.55
2022-08-20T10:37:25.811Z,61.56
2022-08-20T10:39:53.277Z,61.95
2022-08-20T10:42:19.873Z,61.55
2022-08-20T10:44:46.850Z,61.43
2022-08-20T10:47:20.821Z,60.87
2022-08-20T10:49:49.339Z,61.26
2022-08-20T10:52:16.195Z,60.88
2022-08-20T10:54:43.058Z,61.03
2022-08-20T10:57:14.796Z,61.09
2022-08-20T10:59:43.278Z,61.24
2022-08-20T11:02:10.438Z,61.27
2022-08-20T11:04:37.040Z,61.33
2022-08-20T11:07:55.512Z,60.95
2022-08-20T11:10:14.182Z,61.15
2022-08-20T11:12:41.005Z,60.41
2022-08-20T11:15:10.576Z,60.58
2022-08-20T11:17:41.130Z,60.25
2022-08-20T11:20:09.040Z,59.82
2022-08-20T11:22:35.539Z,59.17
2022-08-20T11:25:02.883Z,59.25
2022-08-20T11:27:33.746Z,59.05
2022-08-20T11:30:00.919Z,58.88
2022-08-20T11:32:27.632Z,59.19
2022-08-20T11:34:54.138Z,58.58
2022-08-20T11:37:24.125Z,58.37
2022-08-20T11:39:51.013Z,57.74
2022-08-20T11:42:17.912Z,57.99
2022-08-20T11:44:44.593Z,58.39
2022-08-20T11:47:22.205Z,58.42
2022-08-20T11:49:57.015Z,58.38
2022-08-20T11:52:23.501Z,58.41
2022-08-20T11:54:54.724Z,58.33
2022-08-20T11:57:27.760Z,58.52
2022-08-20T11:59:56.178Z,58.43
2022-08-20T12:02:22.986Z,58.21
2022-08-20T12:04:49.793Z,58.43
2022-08-20T12:07:19.117Z,58.64
2022-08-20T12:09:50.856Z,58.36
2022-08-20T12:12:20.495Z,58.30
2022-08-20T12:14:47.219Z,58.46
2022-08-20T12:17:33.978Z,57.98
2022-08-20T12:20:04.794Z,58.30
2022-08-20T12:22:31.341Z,58.09
2022-08-20T12:24:57.853Z,57.75
2022-08-20T12:27:27.666Z,57.80
2022-08-20T12:29:56.154Z,57.65
2022-08-20T12:32:24.822Z,57.76
2022-08-20T12:34:51.786Z,57.60
2022-08-20T12:37:21.492Z,57.49
2022-08-20T12:39:52.392Z,57.65
2022-08-20T12:42:19.733Z,57.37
2022-08-20T12:44:46.370Z,56.80
2022-08-20T12:47:35.686Z,56.79
2022-08-20T12:50:06.709Z,56.29
2022-08-20T12:52:33.879Z,56.41
2022-08-20T12:55:00.984Z,56.47
2022-08-20T12:57:33.522Z,56.60
2022-08-20T13:00:12.609Z,56.49
2022-08-20T13:02:41.094Z,56.66
2022-08-20T13:05:12.224Z,57.32
2022-08-20T13:07:39.517Z,56.22
2022-08-20T13:10:09.043Z,56.34
2022-08-20T13:12:35.734Z,55.87
2022-08-20T13:15:02.610Z,55.57
2022-08-20T13:17:38.986Z,55.93
2022-08-20T13:20:16.807Z,55.48
2022-08-20T13:22:43.864Z,55.95
2022-08-20T13:25:12.262Z,55.75
2022-08-20T13:27:41.717Z,55.82
2022-08-20T13:30:10.552Z,55.83
2022-08-20T13:32:37.293Z,55.91
2022-08-20T13:35:04.013Z,55.64
2022-08-20T13:37:30.637Z,55.58
2022-08-20T13:39:58.409Z,54.65
2022-08-20T13:42:26.102Z,55.09
2022-08-20T13:44:53.947Z,54.54
2022-08-20T13:47:28.738Z,54.93
2022-08-20T13:50:17.529Z,55.08
2022-08-20T13:52:44.729Z,55.23
2022-08-20T13:55:16.162Z,54.67
2022-08-20T13:57:43.884Z,54.30
2022-08-20T14:00:14.631Z,54.60
2022-08-20T14:02:42.166Z,54.65
2022-08-20T14:05:09.850Z,53.78
2022-08-20T14:07:37.923Z,53.92
2022-08-20T14:10:18.895Z,53.98
2022-08-20T14:12:46.358Z,53.98
2022-08-20T14:15:12.938Z,53.76
2022-08-20T14:17:42.771Z,53.77
2022-08-20T14:20:15.650Z,53.38
2022-08-20T14:22:44.330Z,52.99
2022-08-20T14:25:14.946Z,52.35
2022-08-20T14:27:41.970Z,52.46
2022-08-20T14:30:13.144Z,52.61
2022-08-20T14:32:40.458Z,52.82
2022-08-20T14:35:08.307Z,51.83
2022-08-20T14:37:40.113Z,52.14
2022-08-20T14:40:11.090Z,52.35
2022-08-20T14:42:38.093Z,52.13
2022-08-20T14:45:07.051Z,52.19
2022-08-20T14:47:36.173Z,51.58
2022-08-20T14:50:07.037Z,50.79
2022-08-20T14:52:36.487Z,50.92
2022-08-20T14:55:05.363Z,51.36
2022-08-20T14:57:32.562Z,50.84
2022-08-20T14:59:59.246Z,50.25
2022-08-20T15:02:25.885Z,49.71
2022-08-20T15:04:54.469Z,49.56
2022-08-20T15:07:23.776Z,49.68
2022-08-20T15:09:50.521Z,49.69
2022-08-20T15:12:17.018Z,49.44
2022-08-20T15:14:43.609Z,48.47
2022-08-20T15:17:26.440Z,48.79
2022-08-20T15:19:53.945Z,47.83
2022-08-20T15:22:22.085Z,47.29
2022-08-20T15:24:49.296Z,47.58
2022-08-20T15:27:23.095Z,48.02
2022-08-20T15:29:51.446Z,47.97
2022-08-20T15:32:18.787Z,48.15
2022-08-20T15:34:45.598Z,47.86
2022-08-20T15:37:13.772Z,48.01
2022-08-20T15:39:42.033Z,48.13
2022-08-20T15:42:09.856Z,47.90
2022-08-20T15:44:36.595Z,48.09
2022-08-20T15:47:21.896Z,47.41
2022-08-20T15:49:50.993Z,47.42
2022-08-20T15:52:18.061Z,48.40
2022-08-20T15:54:45.698Z,47.48
2022-08-20T15:57:40.670Z,47.71
2022-08-20T16:00:14.386Z,47.71
2022-08-20T16:03:00.032Z,48.32
2022-08-20T16:05:32.639Z,48.14
2022-08-20T16:08:37.526Z,48.37
2022-08-20T16:11:29.538Z,47.57
2022-08-20T16:14:02.814Z,47.71
2022-08-20T16:16:35.580Z,48.04
2022-08-20T16:19:02.552Z,48.21
2022-08-20T16:21:37.454Z,47.56
2022-08-20T16:24:06.544Z,47.60
2022-08-20T16:26:59.468Z,48.08
2022-08-20T16:29:45.578Z,48.10
2022-08-20T16:32:30.679Z,47.46
2022-08-20T16:35:29.903Z,46.78
2022-08-20T16:38:35.521Z,47.00
2022-08-20T16:41:06.623Z,47.15
2022-08-20T16:43:40.520Z,47.09
2022-08-20T16:46:17.354Z,46.96
2022-08-20T16:48:52.590Z,46.99
2022-08-20T16:51:29.185Z,47.20
2022-08-20T16:53:55.776Z,46.92
2022-08-20T16:56:38.313Z,46.49
2022-08-20T16:59:11.360Z,46.02
2022-08-20T17:01:38.296Z,45.83
2022-08-20T17:04:06.616Z,46.07
2022-08-20T17:06:37.668Z,44.93
2022-08-20T17:09:10.962Z,45.68
2022-08-20T17:11:37.925Z,45.53
2022-08-20T17:14:09.533Z,45.57
2022-08-20T17:16:43.600Z,46.43
2022-08-20T17:19:17.015Z,45.95
2022-08-20T17:21:43.561Z,45.56
2022-08-20T17:24:20.898Z,44.74
2022-08-20T17:26:57.778Z,45.11
2022-08-20T17:29:28.276Z,44.75
2022-08-20T17:31:58.175Z,45.01
2022-08-20T17:34:28.356Z,45.04
2022-08-20T17:37:02.993Z,45.02
2022-08-20T17:39:31.489Z,45.09
2022-08-20T17:42:17.513Z,46.08
2022-08-20T17:44:51.273Z,44.69
2022-08-20T17:47:19.993Z,45.01
2022-08-20T17:50:02.337Z,45.27
2022-08-20T17:52:46.457Z,45.06
2022-08-20T17:55:13.590Z,45.31
2022-08-20T17:57:43.867Z,44.88
2022-08-20T18:00:15.329Z,44.99
2022-08-20T18:02:43.225Z,44.78
2022-08-20T18:05:17.905Z,44.74
2022-08-20T18:08:19.463Z,44.39
2022-08-20T18:11:03.716Z,44.43
2022-08-20T18:13:48.359Z,44.43
2022-08-20T18:16:27.994Z,44.93
2022-08-20T18:18:59.477Z,44.70
2022-08-20T18:21:43.916Z,44.77
2022-08-20T18:24:15.670Z,44.81
2022-08-20T18:26:52.597Z,45.12
2022-08-20T18:29:29.313Z,45.29
2022-08-20T18:32:05.747Z,45.18
2022-08-20T18:34:32.149Z,45.34
2022-08-20T18:37:21.039Z,45.44
2022-08-20T18:39:50.029Z,45.74
2022-08-20T18:42:35.148Z,45.43
2022-08-20T18:45:01.919Z,45.34
2022-08-20T18:47:34.614Z,45.44
2022-08-20T18:50:05.267Z,45.54
2022-08-20T18:52:37.699Z,45.84
2022-08-20T18:55:15.839Z,45.83
2022-08-20T18:58:02.695Z,46.32
2022-08-20T19:00:44.844Z,45.77
2022-08-20T19:03:31.212Z,45.74
2022-08-20T19:06:25.855Z,45.70
2022-08-20T19:09:20.219Z,45.98
2022-08-20T19:12:22.223Z,46.29
2022-08-20T19:15:01.360Z,46.23
2022-08-20T19:17:53.992Z,46.54
2022-08-20T19:20:24.341Z,46.84
2022-08-20T19:22:53.203Z,46.89
2022-08-20T19:25:32.720Z,47.11
2022-08-20T19:28:04.384Z,47.02
2022-08-20T19:30:38.324Z,47.20
2022-08-20T19:33:06.149Z,47.43
2022-08-20T19:35:34.021Z,47.67
2022-08-20T19:38:02.197Z,47.57
2022-08-20T19:40:33.040Z,47.68
2022-08-20T19:43:11.930Z,47.85
2022-08-20T19:45:50.452Z,47.79
2022-08-20T19:48:37.299Z,47.78
2022-08-20T19:51:32.412Z,48.01
2022-08-20T19:53:58.909Z,48.22
2022-08-20T19:56:27.321Z,48.12
2022-08-20T19:59:08.887Z,48.37
2022-08-20T20:01:35.925Z,48.45
2022-08-20T20:04:17.099Z,48.32
2022-08-20T20:06:46.242Z,48.33
2022-08-20T20:09:25.003Z,48.35
2022-08-20T20:11:57.913Z,48.57
2022-08-20T20:14:29.106Z,48.68
2022-08-20T20:16:56.081Z,48.75
2022-08-20T20:19:26.706Z,48.87
2022-08-20T20:22:19.150Z,48.74
2022-08-20T20:24:57.621Z,48.94
2022-08-20T20:27:26.583Z,49.06
2022-08-20T20:30:08.273Z,49.00
2022-08-20T20:32:38.936Z,49.30
2022-08-20T20:35:06.243Z,49.41
2022-08-20T20:37:50.710Z,49.32
2022-08-20T20:40:28.689Z,49.38
2022-08-20T20:43:06.409Z,49.49
2022-08-20T20:45:45.600Z,49.29
2022-08-20T20:48:23.776Z,49.33
2022-08-20T20:50:51.994Z,49.67
2022-08-20T20:53:47.234Z,49.53
2022-08-20T20:56:31.257Z,49.43
2022-08-20T20:59:01.308Z,49.59
2022-08-20T21:01:48.698Z,49.83
2022-08-20T21:04:21.759Z,49.75
2022-08-20T21:06:50.153Z,50.08
2022-08-20T21:09:17.163Z,50.04
2022-08-20T21:11:43.745Z,50.05
2022-08-20T21:14:10.245Z,50.32
2022-08-20T21:16:36.717Z,50.26
2022-08-20T21:19:07.525Z,50.34
2022-08-20T21:21:34.343Z,50.50
2022-08-20T21:24:00.768Z,50.60
2022-08-20T21:26:28.523Z,50.68
2022-08-20T21:28:55.266Z,50.77
2022-08-20T21:31:25.995Z,50.67
2022-08-20T21:33:52.522Z,50.89
2022-08-20T21:36:18.986Z,51.01
2022-08-20T21:38:45.430Z,51.04
2022-08-20T21:41:11.869Z,51.22
2022-08-20T21:43:38.317Z,51.05
2022-08-20T21:46:05.761Z,51.17
2022-08-20T21:48:32.435Z,51.25
2022-08-20T21:50:59.034Z,51.30
2022-08-20T21:53:25.545Z,51.50
2022-08-20T21:55:52.103Z,51.68
2022-08-20T21:58:20.200Z,51.59
2022-08-20T22:00:53.744Z,51.43
2022-08-20T22:03:23.450Z,51.68
2022-08-20T22:05:51.328Z,51.78
2022-08-20T22:08:18.553Z,51.67
2022-08-20T22:10:45.127Z,51.96
2022-08-20T22:13:12.295Z,52.01
2022-08-20T22:15:39.361Z,52.33
2022-08-20T22:18:06.155Z,52.13
2022-08-20T22:20:33.006Z,52.17
2022-08-20T22:23:02.455Z,52.11
2022-08-20T22:25:29.025Z,52.19
2022-08-20T22:27:55.859Z,52.46
2022-08-20T22:30:22.454Z,52.38
2022-08-20T22:32:51.898Z,52.58
2022-08-20T22:35:19.415Z,52.45
2022-08-20T22:37:46.153Z,52.58
2022-08-20T22:40:12.692Z,52.49
2022-08-20T22:42:39.196Z,52.88
2022-08-20T22:45:14.607Z,52.84
2022-08-20T22:47:42.994Z,52.89
2022-08-20T22:50:11.504Z,53.01
2022-08-20T22:52:39.345Z,53.00
2022-08-20T22:55:06.879Z,53.02
2022-08-20T22:57:35.989Z,52.83
2022-08-20T23:00:06.620Z,52.94
2022-08-20T23:02:33.139Z,52.92
2022-08-20T23:04:59.580Z,53.31
2022-08-20T23:07:26.173Z,53.11
2022-08-20T23:09:52.589Z,53.18
2022-08-20T23:12:19.046Z,53.20
2022-08-20T23:14:45.551Z,53.44
2022-08-20T23:17:17.370Z,53.26
2022-08-20T23:19:45.440Z,53.46
2022-08-20T23:22:12.440Z,53.50
2022-08-20T23:24:39.479Z,53.63
2022-08-20T23:27:07.633Z,53.49
2022-08-20T23:29:34.202Z,53.71
2022-08-20T23:32:00.754Z,53.56
2022-08-20T23:34:27.306Z,53.83
2022-08-20T23:36:56.314Z,53.70
2022-08-20T23:39:23.951Z,53.85
2022-08-20T23:41:50.662Z,53.83
2022-08-20T23:44:25.717Z,54.21
2022-08-20T23:47:00.545Z,53.98
2022-08-20T23:49:28.362Z,53.79
2022-08-20T23:51:55.471Z,54.00
2022-08-20T23:54:22.121Z,54.07
2022-08-20T23:56:49.552Z,54.01
2022-08-20T23:59:16.308Z,54.16
